Time;durP1;ratioP1;P1;durP2;ratioP2;P2;SDS_P1;SDS_P2;PMS_P1;PMS_P2;Temp;Humidity;BMP_temperature;BMP_pressure;BME280_temperature;BME280_humidity;BME280_pressure;Samples;Min_cycle;Max_cycle;Signal;HPM_P1;HPM_P2
2022/03/12 00:01:52;;;;;;;8.73;6.20;;;;;;;;;;5132553;28;20083;-53
2022/03/12 00:04:18;;;;;;;7.77;5.77;;;;;;;;;;5094142;28;20020;-50
2022/03/12 00:06:46;;;;;;;12.27;5.73;;;;;;;;;;5129803;28;20023;-49
2022/03/12 00:09:12;;;;;;;13.90;6.50;;;;;;;;;;5126562;28;20024;-49
2022/03/12 00:11:45;;;;;;;9.40;5.97;;;;;;;;;;5132123;28;20047;-49
2022/03/12 00:14:12;;;;;;;7.90;5.77;;;;;;;;;;5125971;28;20063;-49
2022/03/12 00:16:39;;;;;;;12.40;5.83;;;;;;;;;;5129011;28;20023;-48
2022/03/12 00:22:09;;;;;;;11.23;6.00;;;;;;;;;;5132190;28;20026;-55
2022/03/12 00:24:38;;;;;;;10.10;5.97;;;;;;;;;;5123311;28;20020;-53
2022/03/12 00:27:07;;;;;;;11.83;5.90;;;;;;;;;;5129350;28;20110;-53
2022/03/12 00:29:35;;;;;;;9.23;6.37;;;;;;;;;;5128779;28;20015;-49
2022/03/12 00:32:03;;;;;;;9.03;5.57;;;;;;;;;;5132179;28;20015;-50
2022/03/12 00:34:30;;;;;;;10.13;5.73;;;;;;;;;;5131029;28;20035;-49
2022/03/12 00:36:56;;;;;;;8.77;5.60;;;;;;;;;;5132255;28;20091;-51
2022/03/12 00:39:22;;;;;;;7.70;5.77;;;;;;;;;;5112613;28;20027;-50
2022/03/12 00:41:48;;;;;;;9.40;6.27;;;;;;;;;;5124060;27;20054;-50
2022/03/12 00:44:18;;;;;;;9.03;5.73;;;;;;;;;;5138660;27;20027;-47
2022/03/12 00:46:45;;;;;;;10.57;5.90;;;;;;;;;;5129948;27;20023;-48
2022/03/12 00:49:11;;;;;;;8.27;5.57;;;;;;;;;;5135701;27;20123;-49
2022/03/12 00:51:38;;;;;;;9.43;5.50;;;;;;;;;;5125871;27;20076;-50
2022/03/12 00:54:04;;;;;;;7.90;5.30;;;;;;;;;;5135612;27;20046;-53
2022/03/12 00:56:30;;;;;;;9.20;5.53;;;;;;;;;;5125494;27;20035;-53
2022/03/12 00:58:57;;;;;;;7.93;5.53;;;;;;;;;;5131783;27;20356;-48
2022/03/12 01:01:23;;;;;;;7.77;5.63;;;;;;;;;;5116684;27;20029;-49
2022/03/12 01:03:49;;;;;;;8.27;5.30;;;;;;;;;;5132860;27;20042;-49
2022/03/12 01:06:18;;;;;;;10.57;5.83;;;;;;;;;;5135426;27;20031;-49
2022/03/12 01:08:45;;;;;;;11.60;6.27;;;;;;;;;;5135564;27;20020;-48
2022/03/12 01:11:12;;;;;;;7.37;5.80;;;;;;;;;;5133962;27;20412;-48
2022/03/12 01:13:38;;;;;;;11.00;5.70;;;;;;;;;;5120664;27;20395;-50
2022/03/12 01:16:05;;;;;;;9.60;5.47;;;;;;;;;;5128460;27;20018;-50
2022/03/12 01:18:31;;;;;;;8.80;5.57;;;;;;;;;;5127662;27;20436;-50
2022/03/12 01:21:06;;;;;;;8.60;5.63;;;;;;;;;;5135208;27;20124;-48
2022/03/12 01:23:32;;;;;;;9.70;5.93;;;;;;;;;;5116293;27;20024;-53
2022/03/12 01:25:58;;;;;;;9.43;5.93;;;;;;;;;;5122947;27;20321;-49
2022/03/12 01:28:25;;;;;;;7.83;4.67;;;;;;;;;;5127610;27;20032;-48
2022/03/12 01:30:51;;;;;;;7.70;4.60;;;;;;;;;;5135132;27;20215;-49
2022/03/12 01:33:18;;;;;;;7.87;5.87;;;;;;;;;;5119271;27;20035;-47
2022/03/12 01:35:44;;;;;;;10.93;5.77;;;;;;;;;;5133960;27;20030;-49
2022/03/12 01:38:10;;;;;;;8.80;5.67;;;;;;;;;;5128913;27;20023;-49
2022/03/12 01:40:36;;;;;;;8.23;5.33;;;;;;;;;;5134819;27;20076;-51
2022/03/12 01:43:03;;;;;;;9.10;4.90;;;;;;;;;;5133514;27;20141;-48
2022/03/12 01:45:29;;;;;;;9.77;6.27;;;;;;;;;;5134581;27;20035;-48
2022/03/12 01:47:56;;;;;;;8.30;5.57;;;;;;;;;;5110337;27;20043;-47
2022/03/12 01:50:24;;;;;;;9.27;5.27;;;;;;;;;;5127532;27;20058;-53
2022/03/12 01:52:50;;;;;;;8.77;5.50;;;;;;;;;;5116991;27;20122;-53
2022/03/12 01:55:16;;;;;;;7.40;5.27;;;;;;;;;;5113855;27;20434;-53
2022/03/12 01:57:43;;;;;;;7.60;5.47;;;;;;;;;;5115201;27;20337;-51
2022/03/12 02:00:21;;;;;;;8.03;5.43;;;;;;;;;;5134547;27;20023;-47
2022/03/12 02:02:53;;;;;;;8.40;5.43;;;;;;;;;;5121906;27;20036;-49
2022/03/12 02:05:20;;;;;;;7.90;4.77;;;;;;;;;;5124726;27;20020;-50
2022/03/12 02:07:46;;;;;;;8.77;5.27;;;;;;;;;;5129139;27;20360;-48
2022/03/12 02:10:17;;;;;;;8.47;5.43;;;;;;;;;;5134305;27;20023;-49
2022/03/12 02:12:43;;;;;;;6.47;5.30;;;;;;;;;;5123004;27;20039;-47
2022/03/12 02:15:09;;;;;;;7.93;5.20;;;;;;;;;;5122114;27;20118;-48
2022/03/12 02:17:37;;;;;;;8.03;5.83;;;;;;;;;;5130053;27;20043;-51
2022/03/12 02:20:03;;;;;;;6.80;5.27;;;;;;;;;;5115610;27;20480;-48
2022/03/12 02:22:29;;;;;;;9.00;5.90;;;;;;;;;;5125925;27;20023;-52
2022/03/12 02:24:55;;;;;;;9.63;5.50;;;;;;;;;;5129975;27;20026;-50
2022/03/12 02:27:26;;;;;;;8.43;5.90;;;;;;;;;;5132161;27;20029;-52
2022/03/12 02:29:59;;;;;;;8.03;5.00;;;;;;;;;;5134042;27;20011;-53
2022/03/12 02:32:25;;;;;;;11.93;5.47;;;;;;;;;;5126681;27;20028;-54
2022/03/12 02:34:51;;;;;;;10.27;5.10;;;;;;;;;;5129009;27;20080;-53
2022/03/12 02:37:33;;;;;;;6.57;5.03;;;;;;;;;;5129594;27;20028;-54
2022/03/12 02:40:00;;;;;;;9.43;5.47;;;;;;;;;;5134051;27;20026;-53
2022/03/12 02:42:28;;;;;;;6.10;5.40;;;;;;;;;;5132802;27;20089;-52
2022/03/12 02:44:54;;;;;;;10.47;6.17;;;;;;;;;;5133666;27;20532;-51
2022/03/12 02:47:22;;;;;;;11.63;6.43;;;;;;;;;;5130433;27;20031;-53
2022/03/12 02:49:53;;;;;;;7.77;5.77;;;;;;;;;;5133705;27;20026;-49
2022/03/12 02:52:19;;;;;;;10.00;5.13;;;;;;;;;;5132426;27;20035;-52
2022/03/12 02:54:46;;;;;;;9.50;5.10;;;;;;;;;;5133490;27;20050;-50
2022/03/12 02:57:12;;;;;;;8.40;4.80;;;;;;;;;;5131665;27;20027;-48
2022/03/12 02:59:40;;;;;;;7.47;4.93;;;;;;;;;;5133366;27;20446;-51
2022/03/12 03:02:09;;;;;;;7.30;5.27;;;;;;;;;;5127846;27;20020;-49
2022/03/12 03:04:39;;;;;;;6.30;5.07;;;;;;;;;;5125886;27;20027;-50
2022/03/12 03:07:06;;;;;;;8.27;5.00;;;;;;;;;;5112225;27;20015;-51
2022/03/12 03:09:32;;;;;;;8.27;4.97;;;;;;;;;;5132864;27;20034;-48
2022/03/12 03:12:03;;;;;;;10.27;5.00;;;;;;;;;;5121328;27;20046;-51
2022/03/12 03:14:29;;;;;;;7.90;5.33;;;;;;;;;;5107747;27;20396;-50
2022/03/12 03:16:58;;;;;;;9.10;5.63;;;;;;;;;;5132562;27;20023;-49
2022/03/12 03:19:26;;;;;;;7.57;5.67;;;;;;;;;;5130518;27;20027;-53
2022/03/12 03:21:55;;;;;;;8.40;5.77;;;;;;;;;;5132823;27;20055;-50
2022/03/12 03:24:22;;;;;;;6.77;4.73;;;;;;;;;;5132052;27;20033;-51
2022/03/12 03:26:48;;;;;;;7.67;5.13;;;;;;;;;;5130811;27;20042;-54
2022/03/12 03:29:15;;;;;;;7.50;5.07;;;;;;;;;;5129852;27;20031;-49
2022/03/12 03:31:41;;;;;;;8.17;4.93;;;;;;;;;;5132871;27;20030;-48
2022/03/12 03:34:07;;;;;;;8.50;5.13;;;;;;;;;;5124804;27;20527;-54
2022/03/12 03:36:34;;;;;;;7.80;5.13;;;;;;;;;;5109241;28;20081;-54
2022/03/12 03:39:00;;;;;;;9.13;5.17;;;;;;;;;;5123399;27;20429;-47
2022/03/12 03:41:26;;;;;;;5.13;4.53;;;;;;;;;;5132517;27;20023;-53
2022/03/12 03:43:52;;;;;;;13.07;5.90;;;;;;;;;;5108844;28;20111;-48
2022/03/12 03:46:20;;;;;;;7.80;5.63;;;;;;;;;;5140814;27;20031;-48
2022/03/12 03:48:46;;;;;;;6.50;5.27;;;;;;;;;;5129926;28;20092;-50
2022/03/12 03:51:13;;;;;;;7.20;4.90;;;;;;;;;;5127873;28;20027;-48
2022/03/12 03:53:39;;;;;;;9.13;5.30;;;;;;;;;;5119231;28;20441;-49
2022/03/12 03:56:05;;;;;;;10.40;6.03;;;;;;;;;;5130221;28;20027;-48
2022/03/12 03:58:34;;;;;;;13.53;5.90;;;;;;;;;;5131172;28;20028;-49
2022/03/12 04:01:01;;;;;;;7.60;5.67;;;;;;;;;;5114013;28;20058;-48
2022/03/12 04:03:32;;;;;;;8.90;5.30;;;;;;;;;;5118407;27;20135;-52
2022/03/12 04:05:59;;;;;;;7.80;6.23;;;;;;;;;;5126361;28;20015;-49
2022/03/12 04:08:25;;;;;;;8.47;5.37;;;;;;;;;;5127219;28;20514;-49
2022/03/12 04:10:51;;;;;;;8.67;5.20;;;;;;;;;;5127533;28;20548;-49
2022/03/12 04:13:19;;;;;;;7.13;5.37;;;;;;;;;;5130606;28;20047;-50
2022/03/12 04:15:45;;;;;;;9.23;5.83;;;;;;;;;;5126884;28;20039;-49
2022/03/12 04:18:15;;;;;;;9.70;5.53;;;;;;;;;;5134014;27;20052;-50
2022/03/12 04:20:42;;;;;;;8.57;5.83;;;;;;;;;;5136367;27;20417;-49
2022/03/12 04:23:08;;;;;;;7.43;6.07;;;;;;;;;;5136089;27;20107;-48
2022/03/12 04:25:35;;;;;;;6.40;5.40;;;;;;;;;;5117137;27;20043;-49
2022/03/12 04:28:02;;;;;;;8.27;5.03;;;;;;;;;;5136361;27;20090;-52
2022/03/12 04:30:31;;;;;;;8.57;5.23;;;;;;;;;;5129519;27;20103;-49
2022/03/12 04:32:57;;;;;;;7.73;4.90;;;;;;;;;;5136145;27;20110;-49
2022/03/12 04:35:24;;;;;;;8.60;5.50;;;;;;;;;;5116251;27;20022;-48
2022/03/12 04:37:52;;;;;;;7.17;5.37;;;;;;;;;;5134942;27;20070;-49
2022/03/12 04:40:27;;;;;;;8.80;5.37;;;;;;;;;;5129202;27;20068;-50
2022/03/12 04:42:54;;;;;;;9.90;5.63;;;;;;;;;;5136190;27;20096;-49
2022/03/12 04:45:21;;;;;;;8.93;5.73;;;;;;;;;;5126936;27;20028;-52
2022/03/12 04:47:49;;;;;;;9.43;5.47;;;;;;;;;;5135843;27;20061;-52
2022/03/12 04:50:16;;;;;;;9.27;5.43;;;;;;;;;;5131592;27;20031;-54
2022/03/12 04:52:46;;;;;;;8.23;5.33;;;;;;;;;;5123261;27;20034;-54
2022/03/12 04:55:12;;;;;;;7.40;5.63;;;;;;;;;;5127151;27;20109;-54
2022/03/12 04:57:39;;;;;;;9.93;4.90;;;;;;;;;;5129980;27;20031;-53
2022/03/12 05:00:06;;;;;;;10.17;5.67;;;;;;;;;;5129904;27;20027;-49
2022/03/12 05:02:32;;;;;;;12.53;5.50;;;;;;;;;;5106810;27;20035;-50
2022/03/12 05:04:58;;;;;;;8.73;4.93;;;;;;;;;;5113889;27;20392;-53
2022/03/12 05:07:25;;;;;;;8.03;5.40;;;;;;;;;;5135344;27;20387;-51
2022/03/12 05:09:51;;;;;;;7.57;4.90;;;;;;;;;;5130280;27;20370;-50
2022/03/12 05:12:18;;;;;;;7.07;5.57;;;;;;;;;;5135257;27;20472;-47
2022/03/12 05:14:48;;;;;;;8.63;5.13;;;;;;;;;;5127063;27;20811;-50
2022/03/12 05:17:16;;;;;;;6.60;5.17;;;;;;;;;;5135151;27;20019;-48
2022/03/12 05:19:42;;;;;;;8.27;5.57;;;;;;;;;;5131424;27;20027;-48
2022/03/12 05:22:08;;;;;;;7.17;5.20;;;;;;;;;;5135235;27;20015;-48
2022/03/12 05:24:35;;;;;;;8.17;5.43;;;;;;;;;;5128590;27;20102;-48
2022/03/12 05:27:02;;;;;;;8.57;4.90;;;;;;;;;;5135111;27;20027;-50
2022/03/12 05:29:30;;;;;;;8.63;5.43;;;;;;;;;;5132466;27;20499;-48
2022/03/12 05:31:56;;;;;;;8.00;5.33;;;;;;;;;;5115834;27;20027;-49
2022/03/12 05:34:25;;;;;;;8.97;5.50;;;;;;;;;;5128751;27;20036;-50
2022/03/12 05:36:52;;;;;;;7.90;5.40;;;;;;;;;;5130110;27;20484;-49
2022/03/12 05:39:18;;;;;;;8.20;5.63;;;;;;;;;;5132356;27;20020;-48
2022/03/12 05:41:48;;;;;;;9.80;5.23;;;;;;;;;;5134584;27;20043;-47
2022/03/12 05:44:14;;;;;;;8.97;5.50;;;;;;;;;;5130453;27;20023;-47
2022/03/12 05:46:41;;;;;;;8.83;5.37;;;;;;;;;;5132163;27;20031;-48
2022/03/12 05:49:08;;;;;;;7.20;5.10;;;;;;;;;;5133591;27;20531;-51
2022/03/12 05:51:36;;;;;;;10.80;5.83;;;;;;;;;;5134554;27;20045;-47
2022/03/12 05:54:02;;;;;;;6.93;5.23;;;;;;;;;;5131670;27;20023;-49
2022/03/12 05:56:28;;;;;;;7.23;5.57;;;;;;;;;;5129133;27;20126;-48
2022/03/12 05:58:54;;;;;;;9.00;5.60;;;;;;;;;;5132687;27;20102;-53
2022/03/12 06:01:20;;;;;;;9.87;5.17;;;;;;;;;;5125566;27;20034;-54
2022/03/12 06:03:47;;;;;;;7.70;5.00;;;;;;;;;;5117295;27;20075;-51
2022/03/12 06:06:13;;;;;;;7.43;5.50;;;;;;;;;;5119628;27;20066;-53
2022/03/12 06:08:40;;;;;;;7.33;5.17;;;;;;;;;;5130455;27;20024;-48
2022/03/12 06:11:06;;;;;;;8.00;5.80;;;;;;;;;;5132010;27;20020;-48
2022/03/12 06:13:33;;;;;;;8.13;5.50;;;;;;;;;;5133832;27;20038;-53
2022/03/12 06:16:00;;;;;;;8.20;5.30;;;;;;;;;;5123443;27;20083;-48
2022/03/12 06:18:33;;;;;;;7.97;5.43;;;;;;;;;;5115605;27;20034;-50
2022/03/12 06:20:59;;;;;;;7.53;5.23;;;;;;;;;;5128183;27;20054;-54
2022/03/12 06:23:26;;;;;;;9.50;5.47;;;;;;;;;;5133695;27;20019;-50
2022/03/12 06:25:52;;;;;;;7.53;4.97;;;;;;;;;;5123591;27;20019;-52
2022/03/12 06:28:19;;;;;;;9.77;5.37;;;;;;;;;;5129961;27;20059;-54
2022/03/12 06:30:47;;;;;;;8.37;5.80;;;;;;;;;;5126414;27;20135;-52
2022/03/12 06:33:16;;;;;;;9.10;5.33;;;;;;;;;;5119744;27;20164;-50
2022/03/12 06:35:42;;;;;;;7.77;5.23;;;;;;;;;;5123906;27;20011;-49
2022/03/12 06:38:10;;;;;;;9.63;6.67;;;;;;;;;;5133218;27;20043;-53
2022/03/12 06:40:36;;;;;;;7.90;5.60;;;;;;;;;;5132023;27;20031;-48
2022/03/12 06:43:07;;;;;;;10.13;5.50;;;;;;;;;;5137097;27;20035;-50
2022/03/12 06:45:33;;;;;;;9.40;5.07;;;;;;;;;;5132173;27;20394;-48
2022/03/12 06:48:00;;;;;;;8.43;5.57;;;;;;;;;;5133674;27;20011;-51
2022/03/12 06:50:26;;;;;;;8.00;5.77;;;;;;;;;;5132215;27;20032;-50
2022/03/12 06:52:53;;;;;;;6.60;5.23;;;;;;;;;;5133435;27;20076;-48
2022/03/12 06:55:28;;;;;;;7.67;5.03;;;;;;;;;;5131898;27;20031;-48
2022/03/12 06:57:54;;;;;;;7.47;5.60;;;;;;;;;;5128693;27;20099;-49
2022/03/12 07:00:38;;;;;;;8.40;5.50;;;;;;;;;;5115129;27;20036;-48
2022/03/12 07:03:04;;;;;;;11.20;6.17;;;;;;;;;;5110338;27;20023;-47
2022/03/12 07:05:30;;;;;;;8.13;6.33;;;;;;;;;;5123508;27;20034;-47
2022/03/12 07:07:57;;;;;;;12.80;8.10;;;;;;;;;;5122390;27;20120;-47
2022/03/12 07:10:23;;;;;;;17.63;10.37;;;;;;;;;;5130399;27;20471;-49
2022/03/12 07:12:50;;;;;;;16.20;9.50;;;;;;;;;;5127968;27;20046;-50
2022/03/12 07:15:17;;;;;;;13.57;8.97;;;;;;;;;;5132552;27;20034;-47
2022/03/12 07:17:43;;;;;;;11.37;7.47;;;;;;;;;;5120268;27;20055;-48
2022/03/12 07:20:13;;;;;;;9.17;6.30;;;;;;;;;;5126695;27;20110;-50
2022/03/12 07:22:39;;;;;;;10.03;6.17;;;;;;;;;;5112130;27;20083;-52
2022/03/12 07:25:06;;;;;;;8.07;6.13;;;;;;;;;;5132910;27;20046;-48
2022/03/12 07:27:32;;;;;;;8.07;5.40;;;;;;;;;;5123751;27;20035;-47
2022/03/12 07:30:00;;;;;;;10.47;5.37;;;;;;;;;;5133392;27;20022;-50
2022/03/12 07:32:28;;;;;;;7.87;5.40;;;;;;;;;;5131456;27;20039;-49
2022/03/12 07:34:55;;;;;;;7.13;5.57;;;;;;;;;;5114605;27;20023;-48
2022/03/12 07:37:21;;;;;;;8.93;5.63;;;;;;;;;;5131369;27;20046;-48
2022/03/12 07:39:47;;;;;;;8.60;5.93;;;;;;;;;;5132979;27;20483;-47
2022/03/12 07:42:14;;;;;;;9.47;6.20;;;;;;;;;;5123874;27;20019;-48
2022/03/12 07:44:40;;;;;;;8.93;6.13;;;;;;;;;;5131681;27;20030;-47
2022/03/12 07:47:07;;;;;;;6.53;5.27;;;;;;;;;;5125835;28;20030;-47
2022/03/12 07:49:34;;;;;;;9.70;5.70;;;;;;;;;;5132473;28;20114;-54
2022/03/12 07:52:00;;;;;;;11.87;6.50;;;;;;;;;;5123806;28;20418;-53
2022/03/12 07:54:27;;;;;;;10.13;6.03;;;;;;;;;;5132474;27;20062;-53
2022/03/12 07:56:53;;;;;;;7.90;5.87;;;;;;;;;;5136095;27;20098;-49
2022/03/12 07:59:20;;;;;;;9.33;6.07;;;;;;;;;;5136791;27;20479;-49
2022/03/12 08:01:46;;;;;;;11.00;5.77;;;;;;;;;;5123837;27;20026;-50
2022/03/12 08:04:12;;;;;;;10.73;5.83;;;;;;;;;;5110276;27;20087;-55
2022/03/12 08:06:38;;;;;;;9.53;6.20;;;;;;;;;;5133448;27;20036;-49
2022/03/12 08:09:04;;;;;;;7.63;6.37;;;;;;;;;;5133069;27;20034;-47
2022/03/12 08:11:31;;;;;;;10.77;6.33;;;;;;;;;;5133553;27;20123;-47
2022/03/12 08:14:01;;;;;;;11.43;5.73;;;;;;;;;;5125576;27;20662;-49
2022/03/12 08:16:31;;;;;;;10.93;6.53;;;;;;;;;;5134745;27;20027;-50
2022/03/12 08:18:58;;;;;;;11.60;6.77;;;;;;;;;;5132138;27;20030;-51
2022/03/12 08:21:24;;;;;;;10.10;6.07;;;;;;;;;;5135762;27;20008;-50
2022/03/12 08:23:50;;;;;;;8.27;6.03;;;;;;;;;;5125633;27;20034;-47
2022/03/12 08:26:18;;;;;;;10.27;6.23;;;;;;;;;;5136446;27;20026;-49
2022/03/12 08:28:44;;;;;;;9.43;6.00;;;;;;;;;;5117092;27;20023;-48
2022/03/12 08:31:10;;;;;;;8.73;6.43;;;;;;;;;;5136072;27;20026;-48
2022/03/12 08:33:37;;;;;;;7.63;6.17;;;;;;;;;;5105033;27;20046;-51
2022/03/12 08:36:04;;;;;;;8.47;6.30;;;;;;;;;;5126575;27;20047;-48
2022/03/12 08:38:31;;;;;;;9.13;6.57;;;;;;;;;;5132364;27;20358;-49
2022/03/12 08:40:57;;;;;;;10.07;6.67;;;;;;;;;;5117909;27;20064;-54
2022/03/12 08:43:23;;;;;;;9.57;6.80;;;;;;;;;;5134707;27;20098;-48
2022/03/12 08:45:49;;;;;;;9.80;6.30;;;;;;;;;;5136156;27;20051;-51
2022/03/12 08:48:15;;;;;;;12.07;7.40;;;;;;;;;;5131945;27;20027;-49
2022/03/12 08:50:42;;;;;;;13.73;7.33;;;;;;;;;;5128450;27;20106;-49
2022/03/12 08:56:11;;;;;;;9.47;6.40;;;;;;;;;;5126128;27;20025;-48
2022/03/12 08:58:39;;;;;;;10.57;6.97;;;;;;;;;;5135958;27;20420;-47
2022/03/12 09:01:06;;;;;;;12.23;6.93;;;;;;;;;;5128243;27;20023;-48
2022/03/12 09:03:33;;;;;;;14.87;8.00;;;;;;;;;;5133258;27;20040;-48
2022/03/12 09:05:59;;;;;;;12.00;8.20;;;;;;;;;;5115448;27;20023;-48
2022/03/12 09:08:25;;;;;;;13.03;8.63;;;;;;;;;;5101570;28;20357;-49
2022/03/12 09:10:51;;;;;;;14.60;10.47;;;;;;;;;;5130814;27;20019;-47
2022/03/12 09:13:18;;;;;;;13.20;9.60;;;;;;;;;;5129596;27;20083;-49
2022/03/12 09:15:45;;;;;;;17.90;9.60;;;;;;;;;;5135324;27;20011;-48
2022/03/12 09:18:12;;;;;;;15.10;9.73;;;;;;;;;;5131635;27;20384;-53
2022/03/12 09:20:43;;;;;;;15.57;11.17;;;;;;;;;;5135574;27;20016;-51
2022/03/12 09:23:09;;;;;;;18.60;11.37;;;;;;;;;;5133985;27;20421;-48
2022/03/12 09:25:35;;;;;;;21.20;12.70;;;;;;;;;;5116617;27;20052;-48
2022/03/12 09:28:02;;;;;;;17.00;12.37;;;;;;;;;;5133769;27;20114;-52
2022/03/12 09:30:28;;;;;;;25.97;16.33;;;;;;;;;;5135246;27;20035;-50
2022/03/12 09:32:54;;;;;;;18.57;12.93;;;;;;;;;;5108251;28;20093;-51
2022/03/12 09:35:20;;;;;;;17.47;12.10;;;;;;;;;;5134030;27;20031;-52
2022/03/12 09:37:47;;;;;;;20.60;13.40;;;;;;;;;;5134320;27;20714;-52
2022/03/12 09:40:15;;;;;;;22.93;13.87;;;;;;;;;;5135097;27;20027;-50
2022/03/12 09:42:41;;;;;;;21.27;14.03;;;;;;;;;;5131549;27;20102;-52
2022/03/12 09:45:08;;;;;;;18.77;13.80;;;;;;;;;;5145576;27;20147;-50
2022/03/12 09:47:34;;;;;;;19.17;13.30;;;;;;;;;;5133568;27;20487;-50
2022/03/12 09:50:00;;;;;;;17.83;14.60;;;;;;;;;;5125785;27;20019;-51
2022/03/12 09:52:26;;;;;;;20.37;15.07;;;;;;;;;;5128156;27;20024;-52
2022/03/12 09:54:52;;;;;;;22.43;14.60;;;;;;;;;;5110484;27;20043;-52
2022/03/12 09:57:18;;;;;;;20.97;14.83;;;;;;;;;;5130260;27;20027;-52
2022/03/12 09:59:45;;;;;;;19.43;13.93;;;;;;;;;;5125633;27;20026;-52
2022/03/12 10:02:11;;;;;;;18.03;15.13;;;;;;;;;;5129096;27;20014;-49
2022/03/12 10:04:37;;;;;;;21.03;14.80;;;;;;;;;;5132475;27;20416;-49
2022/03/12 10:07:06;;;;;;;22.17;14.53;;;;;;;;;;5134400;27;20031;-54
2022/03/12 10:09:33;;;;;;;20.20;14.63;;;;;;;;;;5133095;27;20025;-51
2022/03/12 10:12:01;;;;;;;20.80;14.77;;;;;;;;;;5134154;27;20118;-49
2022/03/12 10:14:27;;;;;;;22.30;15.83;;;;;;;;;;5132946;27;20035;-53
2022/03/12 10:16:53;;;;;;;21.07;15.73;;;;;;;;;;5133588;27;20051;-51
2022/03/12 10:19:20;;;;;;;26.48;15.65;;;;;;;;;;5105427;27;20027;-52
2022/03/12 10:21:46;;;;;;;20.10;14.40;;;;;;;;;;5134084;27;20443;-53
2022/03/12 10:24:13;;;;;;;24.20;15.23;;;;;;;;;;5112428;27;20034;-49
2022/03/12 10:26:41;;;;;;;23.67;16.17;;;;;;;;;;5134005;27;20079;-48
2022/03/12 10:29:08;;;;;;;22.65;16.42;;;;;;;;;;5129488;27;20133;-50
2022/03/12 10:31:34;;;;;;;23.43;16.00;;;;;;;;;;5133774;27;20357;-52
2022/03/12 10:34:19;;;;;;;25.07;16.23;;;;;;;;;;5132398;27;20039;-53
2022/03/12 10:36:46;;;;;;;22.45;16.05;;;;;;;;;;5127816;27;20490;-47
2022/03/12 10:39:12;;;;;;;19.20;14.43;;;;;;;;;;5124085;27;20026;-48
2022/03/12 10:41:39;;;;;;;22.70;14.73;;;;;;;;;;5115318;27;20025;-49
2022/03/12 10:44:05;;;;;;;22.92;15.63;;;;;;;;;;5132240;27;20027;-48
2022/03/12 10:46:31;;;;;;;20.55;14.30;;;;;;;;;;5133655;27;20374;-53
2022/03/12 10:49:03;;;;;;;17.13;13.10;;;;;;;;;;5132315;27;20027;-53
2022/03/12 10:51:39;;;;;;;17.70;13.07;;;;;;;;;;5114221;27;20023;-53
2022/03/12 10:54:15;;;;;;;18.88;13.52;;;;;;;;;;5113320;27;20080;-53
2022/03/12 10:56:44;;;;;;;20.42;14.43;;;;;;;;;;5131043;27;20376;-52
2022/03/12 10:59:11;;;;;;;19.08;13.32;;;;;;;;;;5131962;27;20494;-49
2022/03/12 11:01:37;;;;;;;19.13;13.25;;;;;;;;;;5133204;27;20019;-50
2022/03/12 11:04:04;;;;;;;17.48;13.35;;;;;;;;;;5132125;27;20023;-52
2022/03/12 11:06:30;;;;;;;16.52;12.43;;;;;;;;;;5114868;27;20055;-52
2022/03/12 11:08:56;;;;;;;17.98;13.02;;;;;;;;;;5124874;27;20118;-48
2022/03/12 11:11:22;;;;;;;17.10;12.27;;;;;;;;;;5132256;27;20034;-49
2022/03/12 11:13:50;;;;;;;18.55;13.07;;;;;;;;;;5132213;27;20047;-48
2022/03/12 11:16:24;;;;;;;17.42;13.45;;;;;;;;;;5132922;27;20467;-49
2022/03/12 11:18:53;;;;;;;22.73;14.33;;;;;;;;;;5131920;27;20038;-50
2022/03/12 11:21:27;;;;;;;16.10;11.95;;;;;;;;;;5132693;27;20542;-48
2022/03/12 11:23:53;;;;;;;22.50;13.85;;;;;;;;;;5131604;27;20034;-50
2022/03/12 11:26:20;;;;;;;19.77;14.40;;;;;;;;;;5131727;27;20097;-49
2022/03/12 11:28:57;;;;;;;19.83;14.38;;;;;;;;;;5131046;27;20031;-49
2022/03/12 11:31:42;;;;;;;21.42;15.60;;;;;;;;;;5132105;27;20390;-49
2022/03/12 11:34:18;;;;;;;21.50;16.10;;;;;;;;;;5130947;27;20698;-48
2022/03/12 11:36:45;;;;;;;18.90;14.73;;;;;;;;;;5132277;27;20019;-48
2022/03/12 11:39:13;;;;;;;17.58;14.82;;;;;;;;;;5130679;27;20441;-49
2022/03/12 11:41:39;;;;;;;19.92;14.70;;;;;;;;;;5132153;27;20067;-49
2022/03/12 11:44:08;;;;;;;21.35;14.63;;;;;;;;;;5131765;27;20388;-49
2022/03/12 11:46:35;;;;;;;18.55;14.88;;;;;;;;;;5132809;27;20030;-52
2022/03/12 11:49:01;;;;;;;25.30;16.13;;;;;;;;;;5106385;28;20120;-49
2022/03/12 11:51:28;;;;;;;20.48;15.48;;;;;;;;;;5132356;28;20023;-50
2022/03/12 11:53:55;;;;;;;19.30;15.02;;;;;;;;;;5129904;28;20039;-53
2022/03/12 11:56:38;;;;;;;21.00;16.60;;;;;;;;;;5133102;28;20027;-48
2022/03/12 11:59:04;;;;;;;20.88;16.15;;;;;;;;;;5131334;28;20555;-48
2022/03/12 12:01:31;;;;;;;21.95;15.95;;;;;;;;;;5113959;28;20045;-48
2022/03/12 12:03:57;;;;;;;21.27;16.13;;;;;;;;;;5131684;28;20038;-48
2022/03/12 12:06:23;;;;;;;22.65;17.02;;;;;;;;;;5132988;28;20024;-47
2022/03/12 12:08:51;;;;;;;22.50;16.02;;;;;;;;;;5131279;28;20031;-49
2022/03/12 12:11:17;;;;;;;23.23;15.00;;;;;;;;;;5114180;28;20027;-49
2022/03/12 12:13:44;;;;;;;22.80;15.98;;;;;;;;;;5109315;28;20044;-50
2022/03/12 12:16:11;;;;;;;20.98;16.38;;;;;;;;;;5121997;28;20050;-51
2022/03/12 12:18:37;;;;;;;19.60;16.10;;;;;;;;;;5131069;28;20122;-51
2022/03/12 12:21:03;;;;;;;19.85;16.05;;;;;;;;;;5131525;28;20379;-50
2022/03/12 12:23:29;;;;;;;21.40;17.25;;;;;;;;;;5130870;28;20031;-50
2022/03/12 12:26:06;;;;;;;25.95;17.35;;;;;;;;;;5132518;28;20045;-48
2022/03/12 12:28:32;;;;;;;24.17;18.50;;;;;;;;;;5131200;28;20075;-49
2022/03/12 12:30:58;;;;;;;27.25;19.42;;;;;;;;;;5124449;28;20519;-54
2022/03/12 12:33:29;;;;;;;25.33;18.60;;;;;;;;;;5116026;28;20126;-50
2022/03/12 12:36:12;;;;;;;22.85;17.65;;;;;;;;;;5131114;28;20090;-50
2022/03/12 12:38:40;;;;;;;24.83;18.65;;;;;;;;;;5126560;27;20023;-50
2022/03/12 12:41:06;;;;;;;24.80;17.95;;;;;;;;;;5117250;27;20027;-49
2022/03/12 12:43:41;;;;;;;23.17;18.70;;;;;;;;;;5138514;27;20023;-49
2022/03/12 12:46:12;;;;;;;25.60;18.10;;;;;;;;;;5125975;27;20026;-48
2022/03/12 12:48:50;;;;;;;24.95;18.23;;;;;;;;;;5121383;27;20020;-49
2022/03/12 12:51:27;;;;;;;24.42;18.30;;;;;;;;;;5134577;27;20114;-48
2022/03/12 12:53:53;;;;;;;26.70;18.40;;;;;;;;;;5126098;27;20047;-49
2022/03/12 12:56:22;;;;;;;23.38;17.42;;;;;;;;;;5135845;27;20098;-49
2022/03/12 12:59:04;;;;;;;23.95;18.15;;;;;;;;;;5111945;27;20031;-48
2022/03/12 13:01:32;;;;;;;22.98;17.38;;;;;;;;;;5119279;27;20035;-51
2022/03/12 13:03:58;;;;;;;23.42;18.98;;;;;;;;;;5109197;27;20356;-53
2022/03/12 13:06:36;;;;;;;23.73;19.02;;;;;;;;;;5135633;27;20023;-54
2022/03/12 13:09:13;;;;;;;22.83;17.50;;;;;;;;;;5118505;27;20626;-53
2022/03/12 13:11:40;;;;;;;22.63;18.25;;;;;;;;;;5135617;27;20046;-54
2022/03/12 13:14:16;;;;;;;24.10;18.40;;;;;;;;;;5118602;27;20388;-54
2022/03/12 13:17:01;;;;;;;22.08;18.13;;;;;;;;;;5114947;28;20127;-53
2022/03/12 13:19:30;;;;;;;24.75;18.40;;;;;;;;;;5118527;27;20040;-49
2022/03/12 13:22:02;;;;;;;23.20;18.30;;;;;;;;;;5135644;27;20019;-49
2022/03/12 13:24:29;;;;;;;23.98;18.73;;;;;;;;;;5131007;27;20467;-48
2022/03/12 13:26:59;;;;;;;25.27;17.23;;;;;;;;;;5116819;27;20020;-51
2022/03/12 13:29:26;;;;;;;24.08;19.40;;;;;;;;;;5117244;27;20020;-48
2022/03/12 13:31:56;;;;;;;25.00;18.35;;;;;;;;;;5122021;27;20052;-52
2022/03/12 13:34:22;;;;;;;24.95;18.60;;;;;;;;;;5128698;27;20402;-54
2022/03/12 13:36:49;;;;;;;29.45;20.90;;;;;;;;;;5135149;27;20019;-54
2022/03/12 13:39:17;;;;;;;24.67;20.25;;;;;;;;;;5119696;27;20092;-51
2022/03/12 13:41:44;;;;;;;23.52;18.80;;;;;;;;;;5135224;27;20106;-53
2022/03/12 13:44:11;;;;;;;23.50;18.70;;;;;;;;;;5110911;27;20455;-54
2022/03/12 13:46:38;;;;;;;23.38;18.45;;;;;;;;;;5134919;27;20098;-54
2022/03/12 13:49:09;;;;;;;23.02;17.20;;;;;;;;;;5120601;27;20038;-49
2022/03/12 13:51:36;;;;;;;24.08;18.52;;;;;;;;;;5129463;27;20515;-53
2022/03/12 13:54:02;;;;;;;24.40;18.92;;;;;;;;;;5129173;27;20035;-52
2022/03/12 13:56:29;;;;;;;25.40;19.65;;;;;;;;;;5123352;27;20024;-50
2022/03/12 13:59:06;;;;;;;24.30;18.00;;;;;;;;;;5122502;27;20106;-52
2022/03/12 14:01:36;;;;;;;25.40;20.30;;;;;;;;;;5125764;27;20106;-49
2022/03/12 14:04:03;;;;;;;23.33;18.40;;;;;;;;;;5125753;27;20062;-54
2022/03/12 14:06:33;;;;;;;23.50;18.23;;;;;;;;;;5134676;27;20033;-51
2022/03/12 14:09:01;;;;;;;26.58;18.77;;;;;;;;;;5125403;27;20084;-48
2022/03/12 14:11:34;;;;;;;23.83;18.33;;;;;;;;;;5108023;28;20072;-51
2022/03/12 14:14:02;;;;;;;28.25;19.45;;;;;;;;;;5088008;28;20046;-48
2022/03/12 14:16:28;;;;;;;24.25;18.75;;;;;;;;;;5093310;28;20012;-48
2022/03/12 14:19:00;;;;;;;26.50;20.05;;;;;;;;;;5084245;28;20024;-49
2022/03/12 14:21:40;;;;;;;27.27;19.52;;;;;;;;;;5087842;28;20017;-48
2022/03/12 14:24:09;;;;;;;26.05;18.98;;;;;;;;;;5085095;28;20558;-50
2022/03/12 14:26:46;;;;;;;24.02;19.05;;;;;;;;;;5093155;28;20472;-49
2022/03/12 14:29:12;;;;;;;26.00;19.00;;;;;;;;;;5090749;28;20079;-49
2022/03/12 14:31:38;;;;;;;26.83;19.83;;;;;;;;;;5092916;28;20012;-52
2022/03/12 14:34:05;;;;;;;26.67;20.25;;;;;;;;;;5088983;28;20111;-48
2022/03/12 14:36:32;;;;;;;25.45;19.27;;;;;;;;;;5092986;28;20024;-49
2022/03/12 14:39:03;;;;;;;25.20;20.13;;;;;;;;;;5084114;28;20389;-48
2022/03/12 14:41:29;;;;;;;25.23;19.08;;;;;;;;;;5082963;28;20063;-47